sensor_id;sensor_type;location;lat;lon;timestamp;P1;durP1;ratioP1;P2;durP2;ratioP2
36585;SDS011;22591;48.314;11.562;2023-07-28T00:02:01;4.35;;;3.95;;
36585;SDS011;22591;48.314;11.562;2023-07-28T00:04:27;3.72;;;3.40;;
36585;SDS011;22591;48.314;11.562;2023-07-28T00:06:53;5.88;;;3.85;;
36585;SDS011;22591;48.314;11.562;2023-07-28T00:09:18;4.03;;;3.50;;
36585;SDS011;22591;48.314;11.562;2023-07-28T00:11:44;3.13;;;2.92;;
36585;SDS011;22591;48.314;11.562;2023-07-28T00:14:09;3.80;;;3.50;;
36585;SDS011;22591;48.314;11.562;2023-07-28T00:16:35;5.13;;;3.42;;
36585;SDS011;22591;48.314;11.562;2023-07-28T00:19:00;3.85;;;3.45;;
36585;SDS011;22591;48.314;11.562;2023-07-28T00:21:26;3.83;;;3.53;;
36585;SDS011;22591;48.314;11.562;2023-07-28T00:23:52;4.43;;;4.13;;
36585;SDS011;22591;48.314;11.562;2023-07-28T00:26:17;4.78;;;4.38;;
36585;SDS011;22591;48.314;11.562;2023-07-28T00:28:43;3.90;;;3.60;;
36585;SDS011;22591;48.314;11.562;2023-07-28T00:31:08;4.43;;;4.03;;
36585;SDS011;22591;48.314;11.562;2023-07-28T00:33:34;4.28;;;3.88;;
36585;SDS011;22591;48.314;11.562;2023-07-28T00:36:00;5.75;;;4.10;;
36585;SDS011;22591;48.314;11.562;2023-07-28T00:38:25;3.75;;;3.45;;
36585;SDS011;22591;48.314;11.562;2023-07-28T00:40:51;4.15;;;3.85;;
36585;SDS011;22591;48.314;11.562;2023-07-28T00:43:16;4.00;;;3.70;;
36585;SDS011;22591;48.314;11.562;2023-07-28T00:45:42;3.90;;;3.60;;
36585;SDS011;22591;48.314;11.562;2023-07-28T00:48:10;4.07;;;3.72;;
36585;SDS011;22591;48.314;11.562;2023-07-28T00:50:39;3.85;;;3.60;;
36585;SDS011;22591;48.314;11.562;2023-07-28T00:55:35;4.30;;;3.58;;
36585;SDS011;22591;48.314;11.562;2023-07-28T00:58:01;4.20;;;3.90;;
36585;SDS011;22591;48.314;11.562;2023-07-28T01:00:27;4.63;;;3.90;;
36585;SDS011;22591;48.314;11.562;2023-07-28T01:02:52;5.18;;;3.83;;
36585;SDS011;22591;48.314;11.562;2023-07-28T01:05:18;7.22;;;3.75;;
36585;SDS011;22591;48.314;11.562;2023-07-28T01:07:47;4.45;;;4.10;;
36585;SDS011;22591;48.314;11.562;2023-07-28T01:10:26;3.83;;;3.53;;
36585;SDS011;22591;48.314;11.562;2023-07-28T01:12:55;3.88;;;3.58;;
36585;SDS011;22591;48.314;11.562;2023-07-28T01:15:20;4.35;;;3.65;;
36585;SDS011;22591;48.314;11.562;2023-07-28T01:17:46;4.25;;;3.70;;
36585;SDS011;22591;48.314;11.562;2023-07-28T01:20:11;3.88;;;3.63;;
36585;SDS011;22591;48.314;11.562;2023-07-28T01:22:49;4.20;;;3.90;;
36585;SDS011;22591;48.314;11.562;2023-07-28T01:25:22;5.78;;;3.67;;
36585;SDS011;22591;48.314;11.562;2023-07-28T01:28:00;4.10;;;3.67;;
36585;SDS011;22591;48.314;11.562;2023-07-28T01:30:26;4.47;;;4.03;;
36585;SDS011;22591;48.314;11.562;2023-07-28T01:32:56;4.80;;;4.30;;
36585;SDS011;22591;48.314;11.562;2023-07-28T01:35:22;4.47;;;4.18;;
36585;SDS011;22591;48.314;11.562;2023-07-28T01:37:49;7.18;;;4.28;;
36585;SDS011;22591;48.314;11.562;2023-07-28T01:40:18;5.13;;;4.70;;
36585;SDS011;22591;48.314;11.562;2023-07-28T01:42:44;4.70;;;4.25;;
36585;SDS011;22591;48.314;11.562;2023-07-28T01:45:09;4.07;;;3.78;;
36585;SDS011;22591;48.314;11.562;2023-07-28T01:47:35;4.50;;;4.20;;
36585;SDS011;22591;48.314;11.562;2023-07-28T01:50:01;4.60;;;4.20;;
36585;SDS011;22591;48.314;11.562;2023-07-28T01:52:27;4.80;;;4.38;;
36585;SDS011;22591;48.314;11.562;2023-07-28T01:54:52;4.82;;;4.35;;
36585;SDS011;22591;48.314;11.562;2023-07-28T01:57:18;4.43;;;4.13;;
36585;SDS011;22591;48.314;11.562;2023-07-28T01:59:43;4.70;;;4.40;;
36585;SDS011;22591;48.314;11.562;2023-07-28T02:02:09;4.50;;;3.78;;
36585;SDS011;22591;48.314;11.562;2023-07-28T02:04:34;4.60;;;4.07;;
36585;SDS011;22591;48.314;11.562;2023-07-28T02:07:00;5.47;;;4.65;;
36585;SDS011;22591;48.314;11.562;2023-07-28T02:09:26;4.45;;;4.05;;
36585;SDS011;22591;48.314;11.562;2023-07-28T02:11:51;5.03;;;3.97;;
36585;SDS011;22591;48.314;11.562;2023-07-28T02:14:17;4.65;;;3.80;;
36585;SDS011;22591;48.314;11.562;2023-07-28T02:16:43;4.25;;;3.92;;
36585;SDS011;22591;48.314;11.562;2023-07-28T02:19:08;4.32;;;3.97;;
36585;SDS011;22591;48.314;11.562;2023-07-28T02:21:34;4.85;;;3.78;;
36585;SDS011;22591;48.314;11.562;2023-07-28T02:24:00;4.30;;;4.00;;
36585;SDS011;22591;48.314;11.562;2023-07-28T02:26:25;3.90;;;3.50;;
36585;SDS011;22591;48.314;11.562;2023-07-28T02:28:51;3.92;;;3.63;;
36585;SDS011;22591;48.314;11.562;2023-07-28T02:31:16;4.28;;;3.92;;
36585;SDS011;22591;48.314;11.562;2023-07-28T02:33:42;5.30;;;3.22;;
36585;SDS011;22591;48.314;11.562;2023-07-28T02:36:07;4.38;;;3.97;;
36585;SDS011;22591;48.314;11.562;2023-07-28T02:38:33;4.55;;;3.38;;
36585;SDS011;22591;48.314;11.562;2023-07-28T02:40:59;4.18;;;3.78;;
36585;SDS011;22591;48.314;11.562;2023-07-28T02:43:24;4.18;;;3.78;;
36585;SDS011;22591;48.314;11.562;2023-07-28T02:45:53;5.32;;;3.88;;
36585;SDS011;22591;48.314;11.562;2023-07-28T02:48:19;4.28;;;3.88;;
36585;SDS011;22591;48.314;11.562;2023-07-28T02:50:46;4.25;;;3.95;;
36585;SDS011;22591;48.314;11.562;2023-07-28T02:53:12;4.15;;;3.85;;
36585;SDS011;22591;48.314;11.562;2023-07-28T02:55:44;4.03;;;3.28;;
36585;SDS011;22591;48.314;11.562;2023-07-28T02:58:11;4.03;;;3.65;;
36585;SDS011;22591;48.314;11.562;2023-07-28T03:00:37;3.70;;;3.40;;
36585;SDS011;22591;48.314;11.562;2023-07-28T03:03:04;3.47;;;3.17;;
36585;SDS011;22591;48.314;11.562;2023-07-28T03:05:33;4.32;;;3.40;;
36585;SDS011;22591;48.314;11.562;2023-07-28T03:07:58;3.83;;;3.45;;
36585;SDS011;22591;48.314;11.562;2023-07-28T03:10:24;3.50;;;3.30;;
36585;SDS011;22591;48.314;11.562;2023-07-28T03:12:50;3.83;;;3.53;;
36585;SDS011;22591;48.314;11.562;2023-07-28T03:15:15;3.88;;;3.58;;
36585;SDS011;22591;48.314;11.562;2023-07-28T03:17:41;3.70;;;3.50;;
36585;SDS011;22591;48.314;11.562;2023-07-28T03:20:07;5.80;;;3.55;;
36585;SDS011;22591;48.314;11.562;2023-07-28T03:22:33;4.75;;;3.65;;
36585;SDS011;22591;48.314;11.562;2023-07-28T03:24:58;4.18;;;3.78;;
36585;SDS011;22591;48.314;11.562;2023-07-28T03:27:24;4.30;;;3.40;;
36585;SDS011;22591;48.314;11.562;2023-07-28T03:29:49;3.58;;;3.38;;
36585;SDS011;22591;48.314;11.562;2023-07-28T03:32:15;4.05;;;3.47;;
36585;SDS011;22591;48.314;11.562;2023-07-28T03:34:41;3.70;;;3.42;;
36585;SDS011;22591;48.314;11.562;2023-07-28T03:37:07;4.35;;;3.95;;
36585;SDS011;22591;48.314;11.562;2023-07-28T03:39:32;4.03;;;3.60;;
36585;SDS011;22591;48.314;11.562;2023-07-28T03:41:58;4.93;;;3.80;;
36585;SDS011;22591;48.314;11.562;2023-07-28T03:44:23;4.85;;;3.80;;
36585;SDS011;22591;48.314;11.562;2023-07-28T03:46:49;3.58;;;3.38;;
36585;SDS011;22591;48.314;11.562;2023-07-28T03:49:14;3.85;;;3.45;;
36585;SDS011;22591;48.314;11.562;2023-07-28T03:51:40;3.70;;;3.40;;
36585;SDS011;22591;48.314;11.562;2023-07-28T03:54:06;4.55;;;3.95;;
36585;SDS011;22591;48.314;11.562;2023-07-28T03:56:31;3.85;;;3.55;;
36585;SDS011;22591;48.314;11.562;2023-07-28T03:58:57;3.90;;;3.60;;
36585;SDS011;22591;48.314;11.562;2023-07-28T04:01:22;4.15;;;3.85;;
36585;SDS011;22591;48.314;11.562;2023-07-28T04:03:49;3.80;;;3.50;;
36585;SDS011;22591;48.314;11.562;2023-07-28T04:06:15;4.47;;;3.88;;
36585;SDS011;22591;48.314;11.562;2023-07-28T04:08:40;4.00;;;3.70;;
36585;SDS011;22591;48.314;11.562;2023-07-28T04:11:06;4.57;;;3.70;;
36585;SDS011;22591;48.314;11.562;2023-07-28T04:13:32;3.58;;;3.20;;
36585;SDS011;22591;48.314;11.562;2023-07-28T04:15:58;4.05;;;3.80;;
36585;SDS011;22591;48.314;11.562;2023-07-28T04:18:24;3.63;;;3.25;;
36585;SDS011;22591;48.314;11.562;2023-07-28T04:20:50;3.33;;;3.13;;
36585;SDS011;22591;48.314;11.562;2023-07-28T04:23:15;3.78;;;3.53;;
36585;SDS011;22591;48.314;11.562;2023-07-28T04:25:41;3.55;;;3.33;;
36585;SDS011;22591;48.314;11.562;2023-07-28T04:28:06;3.65;;;3.35;;
36585;SDS011;22591;48.314;11.562;2023-07-28T04:30:32;3.53;;;3.22;;
36585;SDS011;22591;48.314;11.562;2023-07-28T04:32:57;3.83;;;3.50;;
36585;SDS011;22591;48.314;11.562;2023-07-28T04:35:23;3.80;;;3.25;;
36585;SDS011;22591;48.314;11.562;2023-07-28T04:37:49;7.32;;;3.70;;
36585;SDS011;22591;48.314;11.562;2023-07-28T04:40:14;4.10;;;3.72;;
36585;SDS011;22591;48.314;11.562;2023-07-28T04:42:40;3.92;;;3.58;;
36585;SDS011;22591;48.314;11.562;2023-07-28T04:45:05;3.53;;;2.97;;
36585;SDS011;22591;48.314;11.562;2023-07-28T04:47:31;3.85;;;3.00;;
36585;SDS011;22591;48.314;11.562;2023-07-28T04:49:57;3.80;;;3.50;;
36585;SDS011;22591;48.314;11.562;2023-07-28T04:52:23;3.80;;;3.60;;
36585;SDS011;22591;48.314;11.562;2023-07-28T04:54:48;3.65;;;3.45;;
36585;SDS011;22591;48.314;11.562;2023-07-28T04:57:14;3.60;;;3.40;;
36585;SDS011;22591;48.314;11.562;2023-07-28T04:59:39;4.28;;;3.85;;
36585;SDS011;22591;48.314;11.562;2023-07-28T05:02:05;5.72;;;4.07;;
36585;SDS011;22591;48.314;11.562;2023-07-28T05:04:31;3.70;;;3.45;;
36585;SDS011;22591;48.314;11.562;2023-07-28T05:06:56;4.57;;;3.30;;
36585;SDS011;22591;48.314;11.562;2023-07-28T05:09:22;3.95;;;3.63;;
36585;SDS011;22591;48.314;11.562;2023-07-28T05:11:48;2.70;;;2.60;;
36585;SDS011;22591;48.314;11.562;2023-07-28T05:14:13;3.58;;;3.28;;
36585;SDS011;22591;48.314;11.562;2023-07-28T05:16:39;4.68;;;3.08;;
36585;SDS011;22591;48.314;11.562;2023-07-28T05:19:07;3.40;;;3.03;;
36585;SDS011;22591;48.314;11.562;2023-07-28T05:21:32;2.95;;;2.75;;
36585;SDS011;22591;48.314;11.562;2023-07-28T05:23:58;2.90;;;2.70;;
36585;SDS011;22591;48.314;11.562;2023-07-28T05:26:24;3.45;;;2.58;;
36585;SDS011;22591;48.314;11.562;2023-07-28T05:28:49;3.00;;;2.80;;
36585;SDS011;22591;48.314;11.562;2023-07-28T05:31:15;3.30;;;3.00;;
36585;SDS011;22591;48.314;11.562;2023-07-28T05:33:41;2.83;;;2.70;;
36585;SDS011;22591;48.314;11.562;2023-07-28T05:36:07;3.42;;;3.17;;
36585;SDS011;22591;48.314;11.562;2023-07-28T05:38:32;3.25;;;2.95;;
36585;SDS011;22591;48.314;11.562;2023-07-28T05:40:58;3.40;;;3.20;;
36585;SDS011;22591;48.314;11.562;2023-07-28T05:43:26;4.10;;;3.05;;
36585;SDS011;22591;48.314;11.562;2023-07-28T05:45:52;3.72;;;3.10;;
36585;SDS011;22591;48.314;11.562;2023-07-28T05:48:18;3.65;;;3.35;;
36585;SDS011;22591;48.314;11.562;2023-07-28T05:50:43;3.58;;;3.28;;
36585;SDS011;22591;48.314;11.562;2023-07-28T05:53:09;2.90;;;2.75;;
36585;SDS011;22591;48.314;11.562;2023-07-28T05:55:34;3.75;;;3.45;;
36585;SDS011;22591;48.314;11.562;2023-07-28T05:58:00;3.22;;;2.92;;
36585;SDS011;22591;48.314;11.562;2023-07-28T06:00:25;3.00;;;2.80;;
36585;SDS011;22591;48.314;11.562;2023-07-28T06:02:51;3.28;;;2.97;;
36585;SDS011;22591;48.314;11.562;2023-07-28T06:05:17;3.67;;;2.70;;
36585;SDS011;22591;48.314;11.562;2023-07-28T06:07:43;3.83;;;3.45;;
36585;SDS011;22591;48.314;11.562;2023-07-28T06:10:08;4.00;;;2.97;;
36585;SDS011;22591;48.314;11.562;2023-07-28T06:12:34;3.65;;;2.90;;
36585;SDS011;22591;48.314;11.562;2023-07-28T06:15:01;3.15;;;2.88;;
36585;SDS011;22591;48.314;11.562;2023-07-28T06:17:27;5.20;;;3.08;;
36585;SDS011;22591;48.314;11.562;2023-07-28T06:19:53;2.70;;;2.60;;
36585;SDS011;22591;48.314;11.562;2023-07-28T06:22:19;3.00;;;2.78;;
36585;SDS011;22591;48.314;11.562;2023-07-28T06:24:45;2.92;;;2.55;;
36585;SDS011;22591;48.314;11.562;2023-07-28T06:27:10;3.50;;;2.83;;
36585;SDS011;22591;48.314;11.562;2023-07-28T06:29:36;3.85;;;2.45;;
36585;SDS011;22591;48.314;11.562;2023-07-28T06:32:01;2.80;;;2.60;;
36585;SDS011;22591;48.314;11.562;2023-07-28T06:34:27;3.95;;;2.70;;
36585;SDS011;22591;48.314;11.562;2023-07-28T06:36:53;2.85;;;2.65;;
36585;SDS011;22591;48.314;11.562;2023-07-28T06:39:19;4.00;;;2.60;;
36585;SDS011;22591;48.314;11.562;2023-07-28T06:41:44;3.55;;;2.75;;
36585;SDS011;22591;48.314;11.562;2023-07-28T06:44:10;2.60;;;2.50;;
36585;SDS011;22591;48.314;11.562;2023-07-28T06:46:35;3.45;;;3.15;;
36585;SDS011;22591;48.314;11.562;2023-07-28T06:49:01;4.10;;;2.75;;
36585;SDS011;22591;48.314;11.562;2023-07-28T06:51:27;2.95;;;2.75;;
36585;SDS011;22591;48.314;11.562;2023-07-28T06:53:52;3.75;;;2.38;;
36585;SDS011;22591;48.314;11.562;2023-07-28T06:56:18;3.13;;;2.60;;
36585;SDS011;22591;48.314;11.562;2023-07-28T06:58:43;3.03;;;2.50;;
36585;SDS011;22591;48.314;11.562;2023-07-28T07:01:09;2.97;;;2.72;;
36585;SDS011;22591;48.314;11.562;2023-07-28T07:03:36;3.22;;;2.85;;
36585;SDS011;22591;48.314;11.562;2023-07-28T07:06:02;2.88;;;2.60;;
36585;SDS011;22591;48.314;11.562;2023-07-28T07:08:28;2.80;;;2.60;;
36585;SDS011;22591;48.314;11.562;2023-07-28T07:10:53;2.72;;;2.53;;
36585;SDS011;22591;48.314;11.562;2023-07-28T07:13:19;3.60;;;2.35;;
36585;SDS011;22591;48.314;11.562;2023-07-28T07:15:45;2.80;;;2.60;;
36585;SDS011;22591;48.314;11.562;2023-07-28T07:18:11;2.72;;;2.50;;
36585;SDS011;22591;48.314;11.562;2023-07-28T07:20:37;5.03;;;2.67;;
36585;SDS011;22591;48.314;11.562;2023-07-28T07:23:03;3.03;;;2.42;;
36585;SDS011;22591;48.314;11.562;2023-07-28T07:25:30;2.63;;;2.53;;
36585;SDS011;22591;48.314;11.562;2023-07-28T07:27:55;2.97;;;2.60;;
36585;SDS011;22591;48.314;11.562;2023-07-28T07:30:21;3.00;;;2.25;;
36585;SDS011;22591;48.314;11.562;2023-07-28T07:32:47;2.55;;;2.35;;
36585;SDS011;22591;48.314;11.562;2023-07-28T07:35:13;2.75;;;2.50;;
36585;SDS011;22591;48.314;11.562;2023-07-28T07:37:38;2.42;;;2.17;;
36585;SDS011;22591;48.314;11.562;2023-07-28T07:40:05;4.35;;;2.83;;
36585;SDS011;22591;48.314;11.562;2023-07-28T07:42:42;2.40;;;2.20;;
36585;SDS011;22591;48.314;11.562;2023-07-28T07:45:12;2.95;;;2.10;;
36585;SDS011;22591;48.314;11.562;2023-07-28T07:47:41;3.10;;;2.45;;
36585;SDS011;22591;48.314;11.562;2023-07-28T07:50:08;2.40;;;2.20;;
36585;SDS011;22591;48.314;11.562;2023-07-28T07:52:34;2.22;;;2.13;;
36585;SDS011;22591;48.314;11.562;2023-07-28T07:55:01;5.25;;;2.28;;
36585;SDS011;22591;48.314;11.562;2023-07-28T07:57:27;1.90;;;1.80;;
36585;SDS011;22591;48.314;11.562;2023-07-28T07:59:53;2.70;;;2.20;;
36585;SDS011;22591;48.314;11.562;2023-07-28T08:02:18;3.28;;;2.42;;
36585;SDS011;22591;48.314;11.562;2023-07-28T08:04:44;2.00;;;1.80;;
36585;SDS011;22591;48.314;11.562;2023-07-28T08:07:09;3.35;;;2.42;;
36585;SDS011;22591;48.314;11.562;2023-07-28T08:09:35;4.07;;;2.40;;
36585;SDS011;22591;48.314;11.562;2023-07-28T08:12:01;2.30;;;2.20;;
36585;SDS011;22591;48.314;11.562;2023-07-28T08:14:27;2.80;;;2.40;;
36585;SDS011;22591;48.314;11.562;2023-07-28T08:16:53;3.00;;;2.42;;
36585;SDS011;22591;48.314;11.562;2023-07-28T08:19:18;2.67;;;2.58;;
36585;SDS011;22591;48.314;11.562;2023-07-28T08:21:44;4.47;;;2.10;;
36585;SDS011;22591;48.314;11.562;2023-07-28T08:24:10;2.70;;;2.50;;
36585;SDS011;22591;48.314;11.562;2023-07-28T08:26:36;2.70;;;2.50;;
36585;SDS011;22591;48.314;11.562;2023-07-28T08:29:02;2.58;;;2.42;;
36585;SDS011;22591;48.314;11.562;2023-07-28T08:31:28;2.40;;;2.30;;
36585;SDS011;22591;48.314;11.562;2023-07-28T08:33:53;3.08;;;2.42;;
36585;SDS011;22591;48.314;11.562;2023-07-28T08:36:19;2.42;;;2.22;;
36585;SDS011;22591;48.314;11.562;2023-07-28T08:38:44;3.00;;;2.33;;
36585;SDS011;22591;48.314;11.562;2023-07-28T08:41:10;2.33;;;2.13;;
36585;SDS011;22591;48.314;11.562;2023-07-28T08:43:37;5.43;;;2.50;;
36585;SDS011;22591;48.314;11.562;2023-07-28T08:46:02;2.83;;;2.05;;
36585;SDS011;22591;48.314;11.562;2023-07-28T08:48:28;2.13;;;2.03;;
36585;SDS011;22591;48.314;11.562;2023-07-28T08:50:54;2.58;;;1.95;;
36585;SDS011;22591;48.314;11.562;2023-07-28T08:53:19;2.40;;;2.20;;
36585;SDS011;22591;48.314;11.562;2023-07-28T08:55:45;2.60;;;2.40;;
36585;SDS011;22591;48.314;11.562;2023-07-28T08:58:14;2.17;;;2.08;;
36585;SDS011;22591;48.314;11.562;2023-07-28T09:00:40;2.20;;;2.10;;
36585;SDS011;22591;48.314;11.562;2023-07-28T09:03:08;2.50;;;2.40;;
36585;SDS011;22591;48.314;11.562;2023-07-28T09:05:34;2.20;;;2.10;;
36585;SDS011;22591;48.314;11.562;2023-07-28T09:07:59;2.72;;;2.53;;
36585;SDS011;22591;48.314;11.562;2023-07-28T09:10:25;4.05;;;2.40;;
36585;SDS011;22591;48.314;11.562;2023-07-28T09:12:57;2.03;;;1.92;;
36585;SDS011;22591;48.314;11.562;2023-07-28T09:15:24;3.03;;;2.20;;
36585;SDS011;22591;48.314;11.562;2023-07-28T09:17:49;2.38;;;2.08;;
36585;SDS011;22591;48.314;11.562;2023-07-28T09:20:15;2.22;;;2.10;;
36585;SDS011;22591;48.314;11.562;2023-07-28T09:22:42;2.92;;;1.88;;
36585;SDS011;22591;48.314;11.562;2023-07-28T09:25:15;5.10;;;2.42;;
36585;SDS011;22591;48.314;11.562;2023-07-28T09:27:49;2.22;;;2.05;;
36585;SDS011;22591;48.314;11.562;2023-07-28T09:30:16;2.28;;;2.17;;
36585;SDS011;22591;48.314;11.562;2023-07-28T09:32:43;2.40;;;2.17;;
36585;SDS011;22591;48.314;11.562;2023-07-28T09:35:13;3.90;;;2.47;;
36585;SDS011;22591;48.314;11.562;2023-07-28T09:37:42;2.28;;;1.90;;
36585;SDS011;22591;48.314;11.562;2023-07-28T09:40:16;2.47;;;2.37;;
36585;SDS011;22591;48.314;11.562;2023-07-28T09:42:44;2.67;;;2.47;;
36585;SDS011;22591;48.314;11.562;2023-07-28T09:47:40;3.03;;;2.72;;
36585;SDS011;22591;48.314;11.562;2023-07-28T09:50:09;2.85;;;2.10;;
36585;SDS011;22591;48.314;11.562;2023-07-28T09:52:38;2.78;;;2.60;;
36585;SDS011;22591;48.314;11.562;2023-07-28T09:55:08;2.13;;;2.03;;
36585;SDS011;22591;48.314;11.562;2023-07-28T09:57:38;2.45;;;2.35;;
36585;SDS011;22591;48.314;11.562;2023-07-28T10:00:11;3.35;;;2.45;;
36585;SDS011;22591;48.314;11.562;2023-07-28T10:02:39;2.88;;;2.40;;
36585;SDS011;22591;48.314;11.562;2023-07-28T10:05:05;2.20;;;2.10;;
36585;SDS011;22591;48.314;11.562;2023-07-28T10:07:35;2.30;;;2.10;;
36585;SDS011;22591;48.314;11.562;2023-07-28T10:10:04;3.22;;;2.20;;
36585;SDS011;22591;48.314;11.562;2023-07-28T10:15:15;2.88;;;2.28;;
36585;SDS011;22591;48.314;11.562;2023-07-28T10:17:43;3.08;;;2.70;;
36585;SDS011;22591;48.314;11.562;2023-07-28T10:20:32;2.47;;;2.30;;
36585;SDS011;22591;48.314;11.562;2023-07-28T10:23:04;4.68;;;3.20;;
36585;SDS011;22591;48.314;11.562;2023-07-28T10:25:34;2.80;;;2.60;;
36585;SDS011;22591;48.314;11.562;2023-07-28T10:28:01;2.80;;;2.58;;
36585;SDS011;22591;48.314;11.562;2023-07-28T10:30:28;2.47;;;2.15;;
36585;SDS011;22591;48.314;11.562;2023-07-28T10:32:54;3.67;;;2.45;;
36585;SDS011;22591;48.314;11.562;2023-07-28T10:35:25;2.33;;;2.22;;
36585;SDS011;22591;48.314;11.562;2023-07-28T10:37:53;4.65;;;2.60;;
36585;SDS011;22591;48.314;11.562;2023-07-28T10:40:26;3.10;;;2.70;;
36585;SDS011;22591;48.314;11.562;2023-07-28T10:43:02;2.50;;;2.40;;
36585;SDS011;22591;48.314;11.562;2023-07-28T10:45:30;2.53;;;2.33;;
36585;SDS011;22591;48.314;11.562;2023-07-28T10:47:57;4.57;;;2.47;;
36585;SDS011;22591;48.314;11.562;2023-07-28T10:50:28;3.40;;;2.47;;
36585;SDS011;22591;48.314;11.562;2023-07-28T10:52:55;2.60;;;2.45;;
36585;SDS011;22591;48.314;11.562;2023-07-28T10:55:22;2.40;;;2.30;;
36585;SDS011;22591;48.314;11.562;2023-07-28T10:57:50;2.00;;;1.90;;
36585;SDS011;22591;48.314;11.562;2023-07-28T11:00:18;2.63;;;2.42;;
36585;SDS011;22591;48.314;11.562;2023-07-28T11:02:45;2.38;;;2.17;;
36585;SDS011;22591;48.314;11.562;2023-07-28T11:05:13;2.30;;;2.20;;
36585;SDS011;22591;48.314;11.562;2023-07-28T11:07:43;2.38;;;2.17;;
36585;SDS011;22591;48.314;11.562;2023-07-28T11:10:12;3.30;;;2.65;;
36585;SDS011;22591;48.314;11.562;2023-07-28T11:12:42;2.53;;;2.42;;
36585;SDS011;22591;48.314;11.562;2023-07-28T11:15:09;6.00;;;2.80;;
36585;SDS011;22591;48.314;11.562;2023-07-28T11:17:39;2.72;;;2.58;;
36585;SDS011;22591;48.314;11.562;2023-07-28T11:22:54;5.63;;;2.40;;
36585;SDS011;22591;48.314;11.562;2023-07-28T11:25:29;2.17;;;2.08;;
36585;SDS011;22591;48.314;11.562;2023-07-28T11:27:56;3.72;;;2.33;;
36585;SDS011;22591;48.314;11.562;2023-07-28T11:30:22;2.92;;;2.72;;
36585;SDS011;22591;48.314;11.562;2023-07-28T11:32:49;3.47;;;2.75;;
36585;SDS011;22591;48.314;11.562;2023-07-28T11:35:17;6.10;;;2.60;;
36585;SDS011;22591;48.314;11.562;2023-07-28T11:37:46;2.50;;;2.30;;
36585;SDS011;22591;48.314;11.562;2023-07-28T11:40:14;4.07;;;2.58;;
36585;SDS011;22591;48.314;11.562;2023-07-28T11:42:43;2.90;;;2.70;;
36585;SDS011;22591;48.314;11.562;2023-07-28T11:45:10;2.67;;;2.47;;
36585;SDS011;22591;48.314;11.562;2023-07-28T11:47:37;2.67;;;2.47;;
36585;SDS011;22591;48.314;11.562;2023-07-28T11:50:02;4.97;;;2.58;;
36585;SDS011;22591;48.314;11.562;2023-07-28T11:52:32;2.47;;;2.28;;
36585;SDS011;22591;48.314;11.562;2023-07-28T11:55:05;3.25;;;2.33;;
36585;SDS011;22591;48.314;11.562;2023-07-28T11:57:31;3.90;;;3.03;;
36585;SDS011;22591;48.314;11.562;2023-07-28T11:59:57;4.60;;;2.35;;
36585;SDS011;22591;48.314;11.562;2023-07-28T12:02:24;2.55;;;2.40;;
36585;SDS011;22591;48.314;11.562;2023-07-28T12:04:54;2.88;;;2.67;;
36585;SDS011;22591;48.314;11.562;2023-07-28T12:07:28;3.03;;;2.25;;
36585;SDS011;22591;48.314;11.562;2023-07-28T12:09:56;2.38;;;2.28;;
36585;SDS011;22591;48.314;11.562;2023-07-28T12:12:28;2.38;;;2.20;;
36585;SDS011;22591;48.314;11.562;2023-07-28T12:14:55;2.60;;;2.40;;
36585;SDS011;22591;48.314;11.562;2023-07-28T12:17:25;2.92;;;2.60;;
36585;SDS011;22591;48.314;11.562;2023-07-28T12:20:05;2.60;;;2.40;;
36585;SDS011;22591;48.314;11.562;2023-07-28T12:22:40;2.33;;;2.22;;
36585;SDS011;22591;48.314;11.562;2023-07-28T12:25:08;2.40;;;2.30;;
36585;SDS011;22591;48.314;11.562;2023-07-28T12:27:34;2.67;;;2.47;;
36585;SDS011;22591;48.314;11.562;2023-07-28T12:30:00;3.35;;;2.58;;
36585;SDS011;22591;48.314;11.562;2023-07-28T12:32:27;3.92;;;2.80;;
36585;SDS011;22591;48.314;11.562;2023-07-28T12:34:52;2.70;;;2.60;;
36585;SDS011;22591;48.314;11.562;2023-07-28T12:37:18;2.45;;;2.35;;
36585;SDS011;22591;48.314;11.562;2023-07-28T12:39:44;3.65;;;2.53;;
36585;SDS011;22591;48.314;11.562;2023-07-28T12:42:10;2.60;;;2.40;;
36585;SDS011;22591;48.314;11.562;2023-07-28T12:44:40;3.05;;;2.50;;
36585;SDS011;22591;48.314;11.562;2023-07-28T12:47:06;3.00;;;2.80;;
36585;SDS011;22591;48.314;11.562;2023-07-28T12:49:32;3.60;;;3.30;;
36585;SDS011;22591;48.314;11.562;2023-07-28T12:52:00;3.25;;;2.60;;
36585;SDS011;22591;48.314;11.562;2023-07-28T12:54:27;2.72;;;2.63;;
36585;SDS011;22591;48.314;11.562;2023-07-28T12:56:53;2.88;;;2.65;;
36585;SDS011;22591;48.314;11.562;2023-07-28T12:59:19;2.70;;;2.50;;
36585;SDS011;22591;48.314;11.562;2023-07-28T13:01:45;3.13;;;2.50;;
36585;SDS011;22591;48.314;11.562;2023-07-28T13:04:11;2.83;;;2.63;;
36585;SDS011;22591;48.314;11.562;2023-07-28T13:06:37;3.35;;;3.10;;
36585;SDS011;22591;48.314;11.562;2023-07-28T13:09:03;3.10;;;2.90;;
36585;SDS011;22591;48.314;11.562;2023-07-28T13:11:29;3.00;;;2.63;;
36585;SDS011;22591;48.314;11.562;2023-07-28T13:13:55;3.28;;;3.00;;
36585;SDS011;22591;48.314;11.562;2023-07-28T13:16:21;3.15;;;2.95;;
36585;SDS011;22591;48.314;11.562;2023-07-28T13:18:46;3.30;;;3.10;;
36585;SDS011;22591;48.314;11.562;2023-07-28T13:21:12;2.58;;;2.47;;
36585;SDS011;22591;48.314;11.562;2023-07-28T13:23:38;2.90;;;2.70;;
36585;SDS011;22591;48.314;11.562;2023-07-28T13:26:04;4.90;;;3.10;;
36585;SDS011;22591;48.314;11.562;2023-07-28T13:28:29;3.10;;;2.90;;
36585;SDS011;22591;48.314;11.562;2023-07-28T13:30:55;2.92;;;2.72;;
36585;SDS011;22591;48.314;11.562;2023-07-28T13:33:21;2.63;;;2.42;;
36585;SDS011;22591;48.314;11.562;2023-07-28T13:35:47;3.15;;;2.53;;
36585;SDS011;22591;48.314;11.562;2023-07-28T13:38:13;2.67;;;2.47;;
36585;SDS011;22591;48.314;11.562;2023-07-28T13:40:38;2.92;;;2.70;;
36585;SDS011;22591;48.314;11.562;2023-07-28T13:43:04;2.63;;;2.42;;
36585;SDS011;22591;48.314;11.562;2023-07-28T13:45:29;2.47;;;2.33;;
36585;SDS011;22591;48.314;11.562;2023-07-28T13:47:55;3.10;;;2.90;;
36585;SDS011;22591;48.314;11.562;2023-07-28T13:50:21;2.75;;;2.65;;
36585;SDS011;22591;48.314;11.562;2023-07-28T13:52:46;2.50;;;2.30;;
36585;SDS011;22591;48.314;11.562;2023-07-28T13:55:12;2.50;;;2.30;;
36585;SDS011;22591;48.314;11.562;2023-07-28T13:57:38;2.72;;;2.47;;
36585;SDS011;22591;48.314;11.562;2023-07-28T14:00:04;3.10;;;2.90;;
36585;SDS011;22591;48.314;11.562;2023-07-28T14:02:34;4.05;;;2.70;;
36585;SDS011;22591;48.314;11.562;2023-07-28T14:05:00;2.95;;;2.70;;
36585;SDS011;22591;48.314;11.562;2023-07-28T14:07:26;3.00;;;2.80;;
36585;SDS011;22591;48.314;11.562;2023-07-28T14:09:51;2.85;;;2.65;;
36585;SDS011;22591;48.314;11.562;2023-07-28T14:12:17;3.60;;;2.63;;
36585;SDS011;22591;48.314;11.562;2023-07-28T14:14:43;3.67;;;3.00;;
36585;SDS011;22591;48.314;11.562;2023-07-28T14:17:08;2.78;;;2.65;;
36585;SDS011;22591;48.314;11.562;2023-07-28T14:19:34;4.75;;;2.80;;
36585;SDS011;22591;48.314;11.562;2023-07-28T14:22:01;2.63;;;2.53;;
36585;SDS011;22591;48.314;11.562;2023-07-28T14:24:27;4.43;;;2.90;;
36585;SDS011;22591;48.314;11.562;2023-07-28T14:26:52;2.60;;;2.30;;
36585;SDS011;22591;48.314;11.562;2023-07-28T14:29:18;3.90;;;2.88;;
36585;SDS011;22591;48.314;11.562;2023-07-28T14:31:44;3.10;;;2.90;;
36585;SDS011;22591;48.314;11.562;2023-07-28T14:34:10;3.22;;;3.03;;
36585;SDS011;22591;48.314;11.562;2023-07-28T14:36:36;3.75;;;2.85;;
36585;SDS011;22591;48.314;11.562;2023-07-28T14:39:01;3.28;;;2.78;;
36585;SDS011;22591;48.314;11.562;2023-07-28T14:41:27;3.53;;;2.75;;